createdAt,value
2023-04-10T00:00:46.340Z,8.45
2023-04-10T00:03:34.343Z,8.48
2023-04-10T00:06:22.139Z,7.30
2023-04-10T00:09:10.895Z,7.38
2023-04-10T00:11:58.666Z,6.70
2023-04-10T00:14:46.425Z,6.10
2023-04-10T00:17:34.296Z,6.40
2023-04-10T00:20:26.577Z,7.15
2023-04-10T00:23:14.352Z,6.20
2023-04-10T00:26:02.099Z,6.53
2023-04-10T00:28:49.968Z,6.82
2023-04-10T00:31:37.767Z,6.82
2023-04-10T00:34:26.052Z,7.18
2023-04-10T00:37:13.665Z,6.70
2023-04-10T00:40:01.481Z,6.80
2023-04-10T00:42:49.112Z,6.18
2023-04-10T00:45:38.000Z,6.20
2023-04-10T00:48:26.532Z,7.70
2023-04-10T00:51:15.092Z,5.90
2023-04-10T00:54:03.077Z,6.43
2023-04-10T00:56:51.242Z,6.25
2023-04-10T00:59:39.002Z,7.63
2023-04-10T01:02:27.314Z,7.45
2023-04-10T01:05:15.169Z,10.40
2023-04-10T01:08:24.676Z,8.00
2023-04-10T01:11:35.089Z,7.47
2023-04-10T01:14:54.857Z,7.82
2023-04-10T01:18:33.711Z,9.48
2023-04-10T01:21:22.891Z,6.22
2023-04-10T01:24:38.000Z,7.40
2023-04-10T01:27:44.517Z,7.28
2023-04-10T01:30:36.319Z,7.00
2023-04-10T01:33:31.085Z,8.00
2023-04-10T01:36:24.416Z,7.55
2023-04-10T01:39:13.285Z,6.90
2023-04-10T01:42:01.418Z,7.50
2023-04-10T01:44:59.735Z,6.25
2023-04-10T01:47:48.902Z,7.03
2023-04-10T01:50:37.743Z,7.10
2023-04-10T01:53:25.906Z,6.68
2023-04-10T01:56:14.430Z,7.43
2023-04-10T01:59:05.866Z,6.90
2023-04-10T02:01:58.468Z,6.88
2023-04-10T02:04:51.778Z,8.13
2023-04-10T02:08:06.173Z,9.38
2023-04-10T02:11:04.363Z,8.02
2023-04-10T02:13:54.431Z,7.47
2023-04-10T02:16:43.714Z,7.43
2023-04-10T02:19:34.965Z,6.50
2023-04-10T02:22:26.013Z,8.55
2023-04-10T02:25:14.714Z,7.55
2023-04-10T02:28:06.733Z,7.38
2023-04-10T02:30:54.610Z,7.78
2023-04-10T02:33:42.278Z,7.53
2023-04-10T02:36:30.086Z,7.05
2023-04-10T02:39:17.930Z,6.43
2023-04-10T02:42:12.247Z,5.90
2023-04-10T02:45:01.358Z,6.95
2023-04-10T02:47:55.177Z,7.43
2023-04-10T02:50:46.932Z,6.20
2023-04-10T02:53:34.971Z,7.45
2023-04-10T02:56:22.839Z,6.85
2023-04-10T02:59:10.661Z,7.85
2023-04-10T03:01:58.531Z,6.10
2023-04-10T03:04:46.529Z,8.02
2023-04-10T03:07:34.245Z,7.75
2023-04-10T03:10:22.037Z,7.35
2023-04-10T03:13:09.758Z,9.10
2023-04-10T03:15:57.772Z,9.38
2023-04-10T03:18:46.546Z,8.23
2023-04-10T03:21:34.438Z,9.48
2023-04-10T03:24:13.766Z,8.02
2023-04-10T03:27:04.581Z,8.02
2023-04-10T03:29:54.560Z,8.77
2023-04-10T03:32:45.056Z,8.60
2023-04-10T03:35:32.878Z,10.77
2023-04-10T03:38:23.528Z,12.45
2023-04-10T03:41:11.605Z,10.82
2023-04-10T03:44:00.779Z,10.10
2023-04-10T03:46:50.257Z,10.13
2023-04-10T03:49:39.139Z,9.35
2023-04-10T03:52:28.624Z,10.10
2023-04-10T03:55:20.654Z,10.05
2023-04-10T04:00:58.483Z,9.35
2023-04-10T04:03:56.547Z,9.73
2023-04-10T04:07:02.925Z,11.25
2023-04-10T04:10:07.688Z,10.13
2023-04-10T04:13:12.725Z,10.40
2023-04-10T04:16:11.434Z,11.25
2023-04-10T04:19:07.404Z,10.02
2023-04-10T04:22:11.581Z,7.82
2023-04-10T04:25:18.554Z,8.77
2023-04-10T04:28:16.270Z,7.78
2023-04-10T04:31:21.282Z,9.60
2023-04-10T04:34:35.092Z,9.60
2023-04-10T04:37:38.125Z,9.13
2023-04-10T04:40:44.323Z,8.43
2023-04-10T04:43:58.676Z,10.20
2023-04-10T04:46:56.993Z,10.15
2023-04-10T04:49:44.822Z,11.93
2023-04-10T04:52:46.054Z,10.65
2023-04-10T04:55:52.278Z,12.05
2023-04-10T04:59:18.368Z,10.20
2023-04-10T05:02:38.617Z,11.52
2023-04-10T05:05:48.807Z,10.85
2023-04-10T05:09:02.543Z,11.65
2023-04-10T05:12:13.086Z,11.65
2023-04-10T05:15:27.120Z,9.55
2023-04-10T05:18:26.626Z,10.90
2023-04-10T05:21:33.234Z,10.63
2023-04-10T05:24:39.331Z,11.90
2023-04-10T05:27:32.770Z,10.73
2023-04-10T05:30:36.240Z,11.98
2023-04-10T05:33:42.536Z,22.20
2023-04-10T05:36:44.743Z,35.03
2023-04-10T05:39:58.539Z,16.58
2023-04-10T05:42:56.299Z,12.93
2023-04-10T05:45:50.175Z,8.90
2023-04-10T05:48:56.643Z,9.90
2023-04-10T05:51:59.398Z,9.45
2023-04-10T05:54:58.652Z,9.50
2023-04-10T05:58:06.694Z,8.88
2023-04-10T06:01:13.806Z,8.73
2023-04-10T06:04:04.173Z,8.57
2023-04-10T06:06:54.204Z,10.02
2023-04-10T06:09:42.063Z,8.82
2023-04-10T06:12:30.961Z,9.27
2023-04-10T06:15:19.208Z,10.20
2023-04-10T06:18:07.568Z,12.63
2023-04-10T06:21:00.584Z,16.23
2023-04-10T06:23:48.325Z,12.55
2023-04-10T06:26:36.150Z,12.57
2023-04-10T06:29:25.180Z,11.48
2023-04-10T06:32:13.073Z,13.32
2023-04-10T06:35:01.206Z,14.07
2023-04-10T06:37:49.212Z,14.60
2023-04-10T06:40:37.102Z,13.80
2023-04-10T06:43:24.887Z,13.63
2023-04-10T06:46:13.033Z,14.13
2023-04-10T06:49:00.930Z,14.05
2023-04-10T06:51:48.722Z,14.60
2023-04-10T06:54:36.794Z,14.82
2023-04-10T06:57:24.648Z,14.82
2023-04-10T07:00:13.183Z,13.00
2023-04-10T07:03:00.870Z,14.93
2023-04-10T07:05:48.709Z,13.48
2023-04-10T07:08:36.538Z,15.77
2023-04-10T07:11:24.283Z,12.88
2023-04-10T07:14:12.195Z,14.13
2023-04-10T07:16:59.989Z,14.32
2023-04-10T07:19:47.593Z,14.40
2023-04-10T07:22:35.382Z,14.63
2023-04-10T07:25:23.360Z,16.17
2023-04-10T07:28:11.536Z,16.10
2023-04-10T07:30:59.363Z,15.48
2023-04-10T07:33:47.341Z,15.75
2023-04-10T07:36:35.107Z,14.70
2023-04-10T07:39:23.341Z,14.80
2023-04-10T07:42:11.928Z,14.23
2023-04-10T07:44:59.746Z,13.68
2023-04-10T07:47:47.503Z,13.55
2023-04-10T08:26:21.710Z,8.73
2023-04-10T08:29:09.432Z,11.43
2023-04-10T08:32:00.764Z,10.20
2023-04-10T08:34:50.165Z,10.63
2023-04-10T08:37:37.825Z,10.48
2023-04-10T08:40:25.573Z,10.68
2023-04-10T08:43:13.365Z,9.18
2023-04-10T08:46:02.345Z,8.48
2023-04-10T08:49:02.978Z,9.57
2023-04-10T08:51:59.040Z,10.13
2023-04-10T08:54:51.245Z,9.57
2023-04-10T08:57:42.829Z,10.25
2023-04-10T09:00:38.831Z,9.23
2023-04-10T09:03:27.817Z,9.05
2023-04-10T09:06:15.777Z,8.50
2023-04-10T09:09:03.663Z,8.07
2023-04-10T09:11:56.819Z,8.48
2023-04-10T09:14:44.612Z,7.97
2023-04-10T09:17:32.391Z,8.55
2023-04-10T09:20:24.615Z,8.35
2023-04-10T09:26:24.608Z,8.30
2023-04-10T09:32:00.706Z,7.80
2023-04-10T09:34:58.746Z,8.07
2023-04-10T09:37:47.154Z,8.07
2023-04-10T09:40:34.876Z,8.05
2023-04-10T09:43:25.205Z,6.97
2023-04-10T09:46:13.356Z,8.18
2023-04-10T09:49:07.895Z,8.65
2023-04-10T09:51:56.668Z,9.25
2023-04-10T09:54:44.272Z,9.10
2023-04-10T09:57:34.559Z,8.55
2023-04-10T10:00:22.165Z,8.63
2023-04-10T10:03:17.509Z,8.25
2023-04-10T10:06:05.624Z,7.63
2023-04-10T10:08:54.182Z,9.65
2023-04-10T10:11:42.127Z,8.20
2023-04-10T10:14:32.430Z,9.23
2023-04-10T10:17:24.510Z,8.85
2023-04-10T10:23:04.426Z,9.32
2023-04-10T10:25:54.600Z,8.95
2023-04-10T10:28:43.165Z,8.80
2023-04-10T10:31:37.548Z,7.90
2023-04-10T10:34:25.980Z,8.35
2023-04-10T10:37:14.496Z,8.10
2023-04-10T10:40:12.943Z,9.05
2023-04-10T10:43:16.955Z,7.55
2023-04-10T10:46:13.109Z,7.90
2023-04-10T10:50:18.563Z,7.68
2023-04-10T10:53:35.187Z,7.60
2023-04-10T10:56:32.938Z,7.57
2023-04-10T10:59:49.345Z,7.95
2023-04-10T11:02:45.445Z,8.15
2023-04-10T11:06:04.123Z,7.93
2023-04-10T11:08:53.554Z,7.53
2023-04-10T11:12:12.875Z,7.10
2023-04-10T11:15:04.731Z,6.88
2023-04-10T11:21:10.983Z,6.47
2023-04-10T11:23:58.741Z,6.40
2023-04-10T11:26:47.404Z,6.78
2023-04-10T11:29:35.294Z,7.65
2023-04-10T11:32:22.956Z,6.72
2023-04-10T11:35:12.099Z,7.32
2023-04-10T11:38:10.500Z,6.78
2023-04-10T11:41:01.965Z,6.72
2023-04-10T11:44:01.822Z,8.07
2023-04-10T11:47:00.181Z,7.10
2023-04-10T11:49:55.964Z,7.88
2023-04-10T11:55:45.176Z,7.20
2023-04-10T11:58:32.947Z,6.78
2023-04-10T12:01:22.737Z,6.50
2023-04-10T12:04:18.876Z,6.80
2023-04-10T12:07:06.768Z,7.10
2023-04-10T12:10:00.809Z,7.93
2023-04-10T12:12:48.495Z,6.43
2023-04-10T12:15:36.667Z,7.85
2023-04-10T12:18:24.547Z,7.32
2023-04-10T12:21:12.535Z,6.13
2023-04-10T12:24:00.094Z,7.50
2023-04-10T12:26:50.012Z,7.65
2023-04-10T12:29:37.691Z,6.43
2023-04-10T12:32:27.729Z,6.88
2023-04-10T12:35:15.696Z,7.25
2023-04-10T12:38:03.559Z,7.13
2023-04-10T12:41:01.476Z,7.28
2023-04-10T12:43:49.852Z,8.50
2023-04-10T12:46:38.293Z,7.97
2023-04-10T12:49:36.386Z,6.72
2023-04-10T12:52:24.073Z,7.38
2023-04-10T12:55:16.752Z,6.45
2023-04-10T12:58:18.269Z,6.10
2023-04-10T13:01:09.442Z,6.32
2023-04-10T13:03:57.114Z,6.77
2023-04-10T13:06:49.024Z,6.30
2023-04-10T13:09:37.393Z,5.53
2023-04-10T13:12:29.257Z,5.05
2023-04-10T13:15:17.226Z,5.20
2023-04-10T13:18:07.374Z,6.15
2023-04-10T13:20:55.192Z,4.68
2023-04-10T13:23:42.996Z,5.05
2023-04-10T13:26:30.762Z,5.60
2023-04-10T13:29:18.505Z,6.03
2023-04-10T13:32:30.532Z,4.53
2023-04-10T13:36:22.824Z,5.10
2023-04-10T13:39:10.803Z,5.47
2023-04-10T13:42:27.744Z,4.28
2023-04-10T13:45:16.010Z,4.43
2023-04-10T13:48:04.247Z,4.63
2023-04-10T13:50:52.056Z,4.68
2023-04-10T13:53:39.822Z,4.72
2023-04-10T13:56:27.462Z,5.45
2023-04-10T13:59:15.307Z,5.80
2023-04-10T14:02:02.994Z,6.93
2023-04-10T14:04:51.665Z,7.55
2023-04-10T14:07:39.433Z,8.30
2023-04-10T14:10:27.315Z,6.75
2023-04-10T14:13:14.981Z,6.38
2023-04-10T14:16:04.458Z,5.68
2023-04-10T14:18:52.182Z,5.82
2023-04-10T14:21:41.126Z,6.05
2023-04-10T14:24:35.881Z,5.50
2023-04-10T14:27:23.705Z,6.68
2023-04-10T14:30:11.833Z,6.50
2023-04-10T14:32:59.806Z,5.85
2023-04-10T14:35:48.302Z,4.57
2023-04-10T14:38:37.042Z,5.13
2023-04-10T14:41:24.703Z,5.43
2023-04-10T14:44:12.394Z,5.00
2023-04-10T14:47:00.037Z,5.60
2023-04-10T14:49:47.949Z,4.60
2023-04-10T14:52:35.775Z,5.30
2023-04-10T14:55:24.893Z,5.30
2023-04-10T14:58:14.932Z,4.32
2023-04-10T15:01:02.737Z,5.05
2023-04-10T15:03:53.931Z,4.88
2023-04-10T15:06:42.001Z,5.65
2023-04-10T15:09:29.703Z,9.60
2023-04-10T15:12:17.647Z,8.30
2023-04-10T15:15:08.727Z,9.00
2023-04-10T15:17:56.488Z,7.13
2023-04-10T15:20:44.341Z,8.80
2023-04-10T15:23:34.816Z,4.75
2023-04-10T15:26:25.061Z,4.63
2023-04-10T15:29:13.753Z,4.25
2023-04-10T15:32:04.461Z,4.15
2023-04-10T15:34:52.134Z,4.53
2023-04-10T15:37:39.892Z,5.03
2023-04-10T15:40:33.437Z,4.28
2023-04-10T15:43:27.218Z,3.35
2023-04-10T15:46:17.411Z,4.28
2023-04-10T15:49:06.901Z,3.85
2023-04-10T15:51:54.736Z,4.90
2023-04-10T15:54:45.595Z,4.47
2023-04-10T15:57:38.741Z,4.00
2023-04-10T16:00:37.625Z,3.90
2023-04-10T16:03:30.238Z,3.00
2023-04-10T16:06:21.561Z,3.22
2023-04-10T16:12:06.388Z,3.63
2023-04-10T16:18:12.166Z,4.03
2023-04-10T16:20:59.898Z,4.00
2023-04-10T16:23:50.349Z,5.20
2023-04-10T16:26:38.097Z,5.57
2023-04-10T16:29:25.694Z,5.07
2023-04-10T16:32:13.495Z,5.97
2023-04-10T16:35:01.379Z,6.28
2023-04-10T16:37:49.202Z,7.75
2023-04-10T16:40:40.041Z,7.30
2023-04-10T16:43:27.768Z,7.15
2023-04-10T16:46:15.778Z,7.68
2023-04-10T16:49:04.194Z,10.80
2023-04-10T16:51:51.895Z,8.68
2023-04-10T16:54:42.988Z,8.07
2023-04-10T16:57:31.249Z,8.13
2023-04-10T17:00:22.136Z,7.55
2023-04-10T17:03:10.214Z,8.20
2023-04-10T17:05:58.368Z,7.25
2023-04-10T17:08:46.310Z,8.52
2023-04-10T17:11:34.021Z,9.45
2023-04-10T17:14:21.818Z,8.95
2023-04-10T17:17:09.550Z,13.05
2023-04-10T17:20:10.092Z,11.10
2023-04-10T17:22:58.005Z,8.77
2023-04-10T17:25:45.811Z,11.25
2023-04-10T17:28:34.259Z,10.48
2023-04-10T17:31:22.114Z,10.73
2023-04-10T17:34:10.275Z,11.70
2023-04-10T17:36:58.141Z,11.43
2023-04-10T17:39:46.644Z,8.93
2023-04-10T17:42:34.449Z,8.40
2023-04-10T17:45:24.210Z,7.50
2023-04-10T17:48:14.806Z,8.30
2023-04-10T17:51:14.851Z,9.75
2023-04-10T17:54:04.843Z,9.35
2023-04-10T17:56:57.108Z,8.57
2023-04-10T18:02:32.380Z,9.00
2023-04-10T18:05:20.172Z,9.38
2023-04-10T18:08:08.849Z,9.57
2023-04-10T18:10:59.020Z,9.63
2023-04-10T18:13:47.446Z,9.55
2023-04-10T18:16:35.126Z,12.25
2023-04-10T18:19:23.015Z,11.70
2023-04-10T18:22:13.554Z,12.10
2023-04-10T18:25:01.369Z,13.07
2023-04-10T18:28:09.797Z,14.23
2023-04-10T18:30:58.550Z,13.27
2023-04-10T18:33:56.236Z,13.23
2023-04-10T18:36:53.393Z,11.77
2023-04-10T18:39:41.416Z,10.77
2023-04-10T18:42:29.296Z,11.30
2023-04-10T18:45:17.214Z,13.18
2023-04-10T18:48:04.990Z,14.88
2023-04-10T18:50:55.305Z,15.60
2023-04-10T18:53:42.970Z,12.82
2023-04-10T18:56:31.286Z,13.32
2023-04-10T18:59:18.910Z,13.23
2023-04-10T19:02:09.118Z,13.25
2023-04-10T19:04:57.148Z,13.90
2023-04-10T19:07:56.558Z,15.15
2023-04-10T19:10:51.133Z,19.92
2023-04-10T19:13:38.776Z,17.17
2023-04-10T19:16:29.309Z,13.18
2023-04-10T19:19:19.249Z,14.10
2023-04-10T19:22:07.016Z,17.10
2023-04-10T19:24:54.721Z,16.77
2023-04-10T19:27:51.416Z,12.70
2023-04-10T19:30:39.112Z,15.05
2023-04-10T19:33:27.146Z,14.35
2023-04-10T19:36:16.695Z,14.73
2023-04-10T19:39:04.988Z,14.13
2023-04-10T19:41:55.742Z,11.63
2023-04-10T19:44:43.586Z,11.65
2023-04-10T19:47:31.372Z,11.35
2023-04-10T19:50:19.335Z,9.00
2023-04-10T19:53:07.404Z,9.30
2023-04-10T19:55:55.260Z,8.80
2023-04-10T19:58:44.978Z,10.50
2023-04-10T20:01:34.424Z,10.73
2023-04-10T20:04:22.281Z,8.13
2023-04-10T20:07:10.173Z,7.30
2023-04-10T20:09:59.076Z,7.53
2023-04-10T20:12:46.813Z,6.55
2023-04-10T20:15:37.474Z,6.10
2023-04-10T20:18:36.593Z,6.22
2023-04-10T20:21:24.908Z,7.95
2023-04-10T20:24:12.602Z,16.05
2023-04-10T20:27:00.170Z,8.13
2023-04-10T20:29:47.892Z,8.93
2023-04-10T20:32:35.621Z,9.63
2023-04-10T20:35:26.246Z,8.70
2023-04-10T20:38:14.014Z,7.78
2023-04-10T20:41:01.675Z,9.05
2023-04-10T20:43:50.435Z,6.90
2023-04-10T20:46:38.478Z,7.50
2023-04-10T20:49:27.929Z,7.03
2023-04-10T20:52:15.711Z,6.95
2023-04-10T20:55:03.785Z,6.63
2023-04-10T20:57:51.494Z,6.47
2023-04-10T21:00:39.992Z,7.32
2023-04-10T21:03:28.075Z,7.30
2023-04-10T21:06:16.992Z,8.07
2023-04-10T21:09:06.302Z,6.80
2023-04-10T21:11:53.935Z,15.50
2023-04-10T21:14:41.682Z,13.68
2023-04-10T21:17:31.648Z,9.90
2023-04-10T21:20:19.528Z,7.45
2023-04-10T21:23:38.154Z,6.97
2023-04-10T21:31:29.188Z,8.80
2023-04-10T21:34:16.962Z,10.40
2023-04-10T21:37:36.836Z,11.70
2023-04-10T21:40:25.135Z,7.03
2023-04-10T21:43:12.805Z,8.48
2023-04-10T21:46:02.661Z,9.38
2023-04-10T21:48:51.020Z,10.93
2023-04-10T21:51:40.975Z,10.30
2023-04-10T21:54:29.079Z,8.40
2023-04-10T21:57:16.834Z,9.95
2023-04-10T22:00:04.867Z,9.30
2023-04-10T22:02:52.937Z,8.95
2023-04-10T22:05:40.949Z,7.70
2023-04-10T22:08:28.650Z,9.10
2023-04-10T22:11:16.265Z,8.00
2023-04-10T22:14:15.388Z,7.13
2023-04-10T22:17:06.854Z,7.13
2023-04-10T22:19:54.616Z,6.90
2023-04-10T22:22:42.371Z,7.20
2023-04-10T22:25:30.042Z,8.98
2023-04-10T22:28:17.860Z,9.48
2023-04-10T22:31:05.825Z,11.93
2023-04-10T22:34:11.913Z,9.10
2023-04-10T22:36:59.605Z,9.90
2023-04-10T22:39:47.267Z,10.20
2023-04-10T22:42:35.051Z,9.43
2023-04-10T22:45:22.684Z,10.07
2023-04-10T22:48:10.515Z,8.40
2023-04-10T22:50:58.197Z,8.98
2023-04-10T22:53:45.963Z,9.25
2023-04-10T22:56:33.639Z,7.55
2023-04-10T22:59:21.328Z,7.65
2023-04-10T23:02:09.139Z,6.30
2023-04-10T23:04:58.579Z,6.85
2023-04-10T23:07:46.227Z,8.80
2023-04-10T23:10:33.956Z,7.80
2023-04-10T23:13:21.791Z,7.68
2023-04-10T23:16:10.292Z,7.43
2023-04-10T23:18:58.092Z,7.38
2023-04-10T23:21:46.024Z,7.32
2023-04-10T23:24:33.655Z,7.95
2023-04-10T23:27:21.645Z,6.75
2023-04-10T23:30:09.419Z,7.28
2023-04-10T23:32:57.913Z,7.03
2023-04-10T23:35:45.853Z,6.93
2023-04-10T23:38:33.641Z,7.78
2023-04-10T23:41:21.761Z,7.68
2023-04-10T23:44:09.388Z,7.75
2023-04-10T23:46:57.057Z,7.10
2023-04-10T23:49:44.832Z,7.80
2023-04-10T23:52:32.608Z,8.98
2023-04-10T23:55:21.898Z,6.40
2023-04-10T23:58:10.292Z,8.23
